PNZ weather

Senador Nilo Coelho Airport
Petrolina, Pernambuco, Brazil

Public forecast

Using degrees Celsius for public forecast. Weather courtesy of forecast.io.

METAR (pilot weather report)

Retrieved 2019/06/19 04:00 UTC (2 minutes ago):

SBPL 190400Z 14008KT 9999 BKN030 SCT070 23/18 Q1019

TAF (pilot weather forecast)

Retrieved 2019/06/19 00:00 UTC (4 hours ago):

TAF SBPL 182200Z 1900/1912 16010KT 9999 FEW030 TN24/1905Z TX30/1912Z BECMG 1903/1905 15008KT SCT023 RMK PFM